createdAt,value
2018-08-17T00:00:52.685Z,16.20
2018-08-17T00:03:20.869Z,16.10
2018-08-17T00:05:49.067Z,16.00
2018-08-17T00:08:17.254Z,15.90
2018-08-17T00:10:45.545Z,15.90
2018-08-17T00:13:13.714Z,15.90
2018-08-17T00:15:42.145Z,15.80
2018-08-17T00:18:10.604Z,15.80
2018-08-17T00:20:38.781Z,15.80
2018-08-17T00:23:06.970Z,15.80
2018-08-17T00:25:35.193Z,15.80
2018-08-17T00:28:03.346Z,15.90
2018-08-17T00:30:31.946Z,15.90
2018-08-17T00:33:00.482Z,15.90
2018-08-17T00:35:28.654Z,15.90
2018-08-17T00:37:56.859Z,15.80
2018-08-17T00:40:25.099Z,15.70
2018-08-17T00:42:53.253Z,15.70
2018-08-17T00:45:21.523Z,15.60
2018-08-17T00:47:49.717Z,15.50
2018-08-17T00:50:17.857Z,15.40
2018-08-17T00:52:46.002Z,15.40
2018-08-17T00:55:14.214Z,15.40
2018-08-17T00:57:42.441Z,15.50
2018-08-17T01:00:10.625Z,15.50
2018-08-17T01:02:38.794Z,15.40
2018-08-17T01:05:07.753Z,15.40
2018-08-17T01:07:35.942Z,15.40
2018-08-17T01:10:04.374Z,15.40
2018-08-17T01:12:32.588Z,15.30
2018-08-17T01:15:00.921Z,15.30
2018-08-17T01:17:35.680Z,15.30
2018-08-17T01:20:04.732Z,15.30
2018-08-17T01:22:32.996Z,15.30
2018-08-17T01:25:01.732Z,15.30
2018-08-17T01:27:30.397Z,15.40
2018-08-17T01:29:58.585Z,15.40
2018-08-17T01:32:27.105Z,15.30
2018-08-17T01:34:55.317Z,15.30
2018-08-17T01:37:23.529Z,15.20
2018-08-17T01:39:51.762Z,15.20
2018-08-17T01:42:20.172Z,15.10
2018-08-17T01:44:48.364Z,15.00
2018-08-17T01:47:16.558Z,14.90
2018-08-17T01:49:45.141Z,14.90
2018-08-17T01:52:13.333Z,14.80
2018-08-17T01:54:41.537Z,14.80
2018-08-17T01:57:09.689Z,14.70
2018-08-17T01:59:37.882Z,14.70
2018-08-17T02:02:06.004Z,14.70
2018-08-17T02:04:34.464Z,14.70
2018-08-17T02:07:02.802Z,14.70
2018-08-17T02:09:30.961Z,14.80
2018-08-17T02:11:59.137Z,14.70
2018-08-17T02:14:27.371Z,14.80
2018-08-17T02:16:55.525Z,14.80
2018-08-17T02:19:23.736Z,14.90
2018-08-17T02:21:52.065Z,15.00
2018-08-17T02:24:20.287Z,15.00
2018-08-17T02:26:48.411Z,15.00
2018-08-17T02:29:16.609Z,15.00
2018-08-17T02:31:44.774Z,15.00
2018-08-17T02:34:13.331Z,14.90
2018-08-17T02:36:41.521Z,14.90
2018-08-17T02:39:09.730Z,14.80
2018-08-17T02:41:37.898Z,14.80
2018-08-17T02:44:06.293Z,14.80
2018-08-17T02:46:34.462Z,14.90
2018-08-17T02:49:03.257Z,14.80
2018-08-17T02:51:31.431Z,14.80
2018-08-17T02:54:00.724Z,14.70
2018-08-17T02:56:28.886Z,14.80
2018-08-17T02:58:57.043Z,14.80
2018-08-17T03:01:25.194Z,14.80
2018-08-17T03:03:53.366Z,14.80
2018-08-17T03:06:21.531Z,14.70
2018-08-17T03:08:49.744Z,14.70
2018-08-17T03:11:19.542Z,14.80
2018-08-17T03:13:47.741Z,14.80
2018-08-17T03:16:15.934Z,14.80
2018-08-17T03:18:47.573Z,14.80
2018-08-17T03:21:16.094Z,14.90
2018-08-17T03:23:44.214Z,14.90
2018-08-17T03:26:12.498Z,14.90
2018-08-17T03:28:40.641Z,14.80
2018-08-17T03:31:09.122Z,14.70
2018-08-17T03:33:38.366Z,14.60
2018-08-17T03:36:06.634Z,14.60
2018-08-17T03:38:34.813Z,14.50
2018-08-17T03:41:03.046Z,14.50
2018-08-17T03:43:31.225Z,14.40
2018-08-17T03:45:59.437Z,14.40
2018-08-17T03:48:27.627Z,14.40
2018-08-17T03:50:55.866Z,14.50
2018-08-17T03:53:24.022Z,14.50
2018-08-17T03:55:52.261Z,14.50
2018-08-17T03:58:20.578Z,14.50
2018-08-17T04:00:48.744Z,14.60
2018-08-17T04:03:16.978Z,14.60
2018-08-17T04:05:45.194Z,14.60
2018-08-17T04:08:13.358Z,14.60
2018-08-17T04:10:41.575Z,14.50
2018-08-17T04:13:09.879Z,14.40
2018-08-17T04:15:38.111Z,14.40
2018-08-17T04:18:07.327Z,14.40
2018-08-17T04:20:35.913Z,14.40
2018-08-17T04:23:04.166Z,14.50
2018-08-17T04:25:32.673Z,14.60
2018-08-17T04:28:02.471Z,14.70
2018-08-17T04:30:30.673Z,14.70
2018-08-17T04:32:59.025Z,14.80
2018-08-17T04:35:27.263Z,14.80
2018-08-17T04:37:55.381Z,14.80
2018-08-17T04:40:23.613Z,14.90
2018-08-17T04:42:51.819Z,14.90
2018-08-17T04:45:19.968Z,14.90
2018-08-17T04:47:48.505Z,14.90
2018-08-17T04:50:16.689Z,14.90
2018-08-17T04:52:44.853Z,14.80
2018-08-17T04:55:13.082Z,14.80
2018-08-17T04:57:41.390Z,14.80
2018-08-17T05:00:10.406Z,14.90
2018-08-17T05:02:39.013Z,14.90
2018-08-17T05:05:08.105Z,15.00
2018-08-17T05:07:36.421Z,15.00
2018-08-17T05:10:05.217Z,15.00
2018-08-17T05:12:33.398Z,15.10
2018-08-17T05:15:01.580Z,15.20
2018-08-17T05:17:29.782Z,15.40
2018-08-17T05:19:57.987Z,15.50
2018-08-17T05:22:26.135Z,15.50
2018-08-17T05:24:54.333Z,15.60
2018-08-17T05:27:22.528Z,15.70
2018-08-17T05:29:51.038Z,15.90
2018-08-17T05:32:19.181Z,16.00
2018-08-17T05:34:47.393Z,16.20
2018-08-17T05:37:15.550Z,16.40
2018-08-17T05:39:43.722Z,16.60
2018-08-17T05:42:11.877Z,16.80
2018-08-17T05:44:40.038Z,17.10
2018-08-17T05:47:08.564Z,17.40
2018-08-17T05:49:36.736Z,17.80
2018-08-17T05:52:06.182Z,19.00
2018-08-17T05:54:34.498Z,20.30
2018-08-17T05:57:02.661Z,21.20
2018-08-17T05:59:30.866Z,21.90
2018-08-17T06:01:59.089Z,22.40
2018-08-17T06:04:27.262Z,22.90
2018-08-17T06:06:55.395Z,23.40
2018-08-17T06:09:23.581Z,24.00
2018-08-17T06:11:53.370Z,24.30
2018-08-17T06:14:21.557Z,24.40
2018-08-17T06:16:49.730Z,24.80
2018-08-17T06:19:17.947Z,25.10
2018-08-17T06:21:46.053Z,25.30
2018-08-17T06:24:14.555Z,25.30
2018-08-17T06:26:43.051Z,25.40
2018-08-17T06:29:11.223Z,25.90
2018-08-17T06:31:39.417Z,27.00
2018-08-17T06:34:07.593Z,28.40
2018-08-17T06:36:36.538Z,29.00
2018-08-17T06:39:07.901Z,28.30
2018-08-17T06:41:36.092Z,28.10
2018-08-17T06:44:04.314Z,28.20
2018-08-17T06:46:33.206Z,28.70
2018-08-17T06:49:01.378Z,28.90
2018-08-17T06:51:29.677Z,28.40
2018-08-17T06:53:57.930Z,28.50
2018-08-17T06:56:26.095Z,29.00
2018-08-17T06:58:54.330Z,29.20
2018-08-17T07:01:22.554Z,29.00
2018-08-17T07:03:50.713Z,28.80
2018-08-17T07:06:18.889Z,28.70
2018-08-17T07:08:47.137Z,28.80
2018-08-17T07:11:15.242Z,28.80
2018-08-17T07:13:43.400Z,28.80
2018-08-17T07:16:11.561Z,28.60
2018-08-17T07:18:39.769Z,28.50
2018-08-17T07:21:08.182Z,28.70
2018-08-17T07:23:36.322Z,28.90
2018-08-17T07:26:04.525Z,29.50
2018-08-17T07:28:33.002Z,29.70
2018-08-17T07:31:01.200Z,29.20
2018-08-17T07:33:29.372Z,28.40
2018-08-17T07:35:57.557Z,27.60
2018-08-17T07:38:25.957Z,27.60
2018-08-17T07:40:55.060Z,27.70
2018-08-17T07:43:23.212Z,27.60
2018-08-17T07:45:51.428Z,27.50
2018-08-17T07:48:19.742Z,27.10
2018-08-17T07:50:47.948Z,27.30
2018-08-17T07:53:18.858Z,27.20
2018-08-17T07:55:47.041Z,27.20
2018-08-17T07:58:15.238Z,27.50
2018-08-17T08:00:43.427Z,27.60
2018-08-17T08:03:11.561Z,27.80
2018-08-17T08:05:39.803Z,28.10
2018-08-17T08:08:08.031Z,28.20
2018-08-17T08:10:36.240Z,27.90
2018-08-17T08:13:05.063Z,27.90
2018-08-17T08:15:33.245Z,27.90
2018-08-17T08:18:01.402Z,28.10
2018-08-17T08:20:32.754Z,28.10
2018-08-17T08:23:12.617Z,27.50
2018-08-17T08:25:41.026Z,27.30
2018-08-17T08:28:09.997Z,27.50
2018-08-17T08:30:38.185Z,27.70
2018-08-17T08:33:06.770Z,27.80
2018-08-17T08:35:34.934Z,27.60
2018-08-17T08:38:03.130Z,27.60
2018-08-17T08:40:31.266Z,27.80
2018-08-17T08:42:59.459Z,28.10
2018-08-17T08:45:27.736Z,28.20
2018-08-17T08:47:55.841Z,28.40
2018-08-17T08:50:24.497Z,28.70
2018-08-17T08:52:52.670Z,28.50
2018-08-17T08:55:20.884Z,28.40
2018-08-17T08:57:49.037Z,28.40
2018-08-17T09:00:17.234Z,28.20
2018-08-17T09:02:46.338Z,28.60
2018-08-17T09:05:14.538Z,29.20
2018-08-17T09:07:43.237Z,29.40
2018-08-17T09:10:11.597Z,29.60
2018-08-17T09:12:40.705Z,29.80
2018-08-17T09:15:10.354Z,29.90
2018-08-17T09:17:38.691Z,29.70
2018-08-17T09:20:08.416Z,29.50
2018-08-17T09:22:37.359Z,29.50
2018-08-17T09:25:05.514Z,29.70
2018-08-17T09:27:34.304Z,30.10
2018-08-17T09:30:02.714Z,30.50
2018-08-17T09:32:30.886Z,30.90
2018-08-17T09:34:59.081Z,31.10
2018-08-17T09:37:27.250Z,31.40
2018-08-17T09:39:55.419Z,31.00
2018-08-17T09:42:23.902Z,31.10
2018-08-17T09:44:52.052Z,31.00
2018-08-17T09:47:20.214Z,31.20
2018-08-17T09:49:49.208Z,31.40
2018-08-17T09:52:18.126Z,31.60
2018-08-17T09:54:46.326Z,31.40
2018-08-17T09:57:14.483Z,31.20
2018-08-17T09:59:44.066Z,31.10
2018-08-17T10:02:17.797Z,31.30
2018-08-17T10:04:51.459Z,31.50
2018-08-17T10:07:24.990Z,31.60
2018-08-17T10:09:55.390Z,31.50
2018-08-17T10:12:23.738Z,31.40
2018-08-17T10:14:53.022Z,31.60
2018-08-17T10:17:21.227Z,32.10
2018-08-17T10:19:49.486Z,32.70
2018-08-17T10:22:17.662Z,33.20
2018-08-17T10:24:45.930Z,33.70
2018-08-17T10:27:14.136Z,33.90
2018-08-17T10:29:42.335Z,34.00
2018-08-17T10:32:10.591Z,33.90
2018-08-17T10:34:38.842Z,33.90
2018-08-17T10:37:07.334Z,34.30
2018-08-17T10:39:35.598Z,33.90
2018-08-17T10:42:03.771Z,33.50
2018-08-17T10:44:31.987Z,33.50
2018-08-17T10:47:00.377Z,33.50
2018-08-17T10:49:28.599Z,33.60
2018-08-17T10:52:00.373Z,34.00
2018-08-17T10:54:28.562Z,34.30
2018-08-17T10:56:56.906Z,34.10
2018-08-17T10:59:25.103Z,34.20
2018-08-17T11:01:53.278Z,34.00
2018-08-17T11:04:22.641Z,34.30
2018-08-17T11:06:50.801Z,34.30
2018-08-17T11:09:18.991Z,34.30
2018-08-17T11:11:47.185Z,34.50
2018-08-17T11:14:15.322Z,34.90
2018-08-17T11:16:43.539Z,34.90
2018-08-17T11:19:11.719Z,35.30
2018-08-17T11:21:39.897Z,35.70
2018-08-17T11:24:08.276Z,35.70
2018-08-17T11:26:37.562Z,35.70
2018-08-17T11:29:05.750Z,35.90
2018-08-17T11:31:33.938Z,35.50
2018-08-17T11:34:02.112Z,35.40
2018-08-17T11:36:30.506Z,35.30
2018-08-17T11:38:58.682Z,34.70
2018-08-17T11:41:26.866Z,34.60
2018-08-17T11:43:57.281Z,34.40
2018-08-17T11:46:25.469Z,34.60
2018-08-17T11:48:53.601Z,34.70
2018-08-17T11:51:21.786Z,34.70
2018-08-17T11:53:50.008Z,34.60
2018-08-17T11:56:18.150Z,34.40
2018-08-17T11:58:46.398Z,34.70
2018-08-17T12:01:20.195Z,35.00
2018-08-17T12:03:48.394Z,35.10
2018-08-17T12:06:16.651Z,35.10
2018-08-17T12:08:44.785Z,35.40
2018-08-17T12:11:12.974Z,35.40
2018-08-17T12:13:41.399Z,34.90
2018-08-17T12:16:12.110Z,35.20
2018-08-17T12:18:40.672Z,35.50
2018-08-17T12:21:08.822Z,35.40
2018-08-17T12:23:37.065Z,35.10
2018-08-17T12:26:05.319Z,35.40
2018-08-17T12:28:33.812Z,34.60
2018-08-17T12:31:01.958Z,33.40
2018-08-17T12:33:30.674Z,33.10
2018-08-17T12:35:58.842Z,33.40
2018-08-17T12:38:27.523Z,33.60
2018-08-17T12:40:57.032Z,34.10
2018-08-17T12:43:28.913Z,34.30
2018-08-17T12:45:57.202Z,34.10
2018-08-17T12:48:25.397Z,33.80
2018-08-17T12:50:53.926Z,33.50
2018-08-17T12:53:22.838Z,33.50
2018-08-17T12:55:51.018Z,33.80
2018-08-17T12:58:19.434Z,33.70
2018-08-17T13:00:47.620Z,33.90
2018-08-17T13:03:16.824Z,34.40
2018-08-17T13:05:45.030Z,34.80
2018-08-17T13:08:13.270Z,35.20
2018-08-17T13:10:41.596Z,35.00
2018-08-17T13:13:10.687Z,35.00
2018-08-17T13:15:43.200Z,34.80
2018-08-17T13:18:17.649Z,34.80
2018-08-17T13:20:45.849Z,34.60
2018-08-17T13:23:14.246Z,34.50
2018-08-17T13:25:42.476Z,34.90
2018-08-17T13:28:10.998Z,35.80
2018-08-17T13:30:39.201Z,35.90
2018-08-17T13:33:07.759Z,35.70
2018-08-17T13:35:36.027Z,35.60
2018-08-17T13:38:04.279Z,35.40
2018-08-17T13:40:32.481Z,35.30
2018-08-17T13:43:00.798Z,35.50
2018-08-17T13:45:28.966Z,36.00
2018-08-17T13:47:57.161Z,36.50
2018-08-17T13:50:25.386Z,36.80
2018-08-17T13:52:53.722Z,36.60
2018-08-17T13:55:21.948Z,36.20
2018-08-17T13:57:50.099Z,36.40
2018-08-17T14:00:18.301Z,36.50
2018-08-17T14:02:46.990Z,36.20
2018-08-17T14:05:15.153Z,36.50
2018-08-17T14:07:43.715Z,36.90
2018-08-17T14:10:12.160Z,36.90
2018-08-17T14:12:40.927Z,36.80
2018-08-17T14:15:10.566Z,36.50
2018-08-17T14:17:38.981Z,36.50
2018-08-17T14:20:10.997Z,37.00
2018-08-17T14:22:39.202Z,37.80
2018-08-17T14:25:08.606Z,38.60
2018-08-17T14:27:36.866Z,39.20
2018-08-17T14:30:08.521Z,39.60
2018-08-17T14:32:36.666Z,39.40
2018-08-17T14:35:05.067Z,38.60
2018-08-17T14:37:33.969Z,38.20
2018-08-17T14:40:02.304Z,37.80
2018-08-17T14:42:30.477Z,37.40
2018-08-17T14:44:58.665Z,37.30
2018-08-17T14:47:26.883Z,35.80
2018-08-17T14:49:55.057Z,34.30
2018-08-17T14:52:23.518Z,32.70
2018-08-17T14:54:51.657Z,31.60
2018-08-17T14:57:19.830Z,31.00
2018-08-17T14:59:47.970Z,30.80
2018-08-17T15:02:16.169Z,30.50
2018-08-17T15:04:44.346Z,30.30
2018-08-17T15:07:12.489Z,30.60
2018-08-17T15:09:40.662Z,31.50
2018-08-17T15:12:08.869Z,31.70
2018-08-17T15:14:37.034Z,31.20
2018-08-17T15:17:05.490Z,31.10
2018-08-17T15:19:33.714Z,31.40
2018-08-17T15:22:01.901Z,31.70
2018-08-17T15:24:30.119Z,31.60
2018-08-17T15:26:59.187Z,31.50
2018-08-17T15:29:27.354Z,31.00
2018-08-17T15:31:56.168Z,30.60
2018-08-17T15:34:24.368Z,30.30
2018-08-17T15:36:52.571Z,30.20
2018-08-17T15:39:20.779Z,29.90
2018-08-17T15:41:48.926Z,29.90
2018-08-17T15:44:22.658Z,30.30
2018-08-17T15:46:50.910Z,31.10
2018-08-17T15:49:24.606Z,31.80
2018-08-17T15:51:52.876Z,32.00
2018-08-17T15:54:21.029Z,32.20
2018-08-17T15:56:49.230Z,32.00
2018-08-17T15:59:17.466Z,31.50
2018-08-17T16:01:45.701Z,31.30
2018-08-17T16:04:13.905Z,31.20
2018-08-17T16:06:42.167Z,30.90
2018-08-17T16:09:11.617Z,30.80
2018-08-17T16:11:40.063Z,30.70
2018-08-17T16:14:08.250Z,30.50
2018-08-17T16:16:36.808Z,30.40
2018-08-17T16:19:05.490Z,30.10
2018-08-17T16:21:34.265Z,29.50
2018-08-17T16:24:03.717Z,29.50
2018-08-17T16:26:31.944Z,29.40
2018-08-17T16:29:01.264Z,29.30
2018-08-17T16:31:42.703Z,29.50
2018-08-17T16:34:11.085Z,29.70
2018-08-17T16:36:41.090Z,29.90
2018-08-17T16:39:11.138Z,29.50
2018-08-17T16:41:39.642Z,29.00
2018-08-17T16:44:07.781Z,29.00
2018-08-17T16:46:38.394Z,29.10
2018-08-17T16:49:06.974Z,29.00
2018-08-17T16:51:35.783Z,28.70
2018-08-17T16:54:03.961Z,28.20
2018-08-17T16:56:32.183Z,27.70
2018-08-17T16:59:00.668Z,27.90
2018-08-17T17:01:31.021Z,28.20
2018-08-17T17:03:59.265Z,27.70
2018-08-17T17:06:29.416Z,27.10
2018-08-17T17:09:12.502Z,26.90
2018-08-17T17:11:40.674Z,26.60
2018-08-17T17:14:09.295Z,26.60
2018-08-17T17:16:42.968Z,26.50
2018-08-17T17:19:16.582Z,26.30
2018-08-17T17:21:45.974Z,26.00
2018-08-17T17:24:14.862Z,25.70
2018-08-17T17:26:43.406Z,25.50
2018-08-17T17:29:11.613Z,25.40
2018-08-17T17:31:40.358Z,25.40
2018-08-17T17:34:08.905Z,25.30
2018-08-17T17:36:37.372Z,25.10
2018-08-17T17:39:08.529Z,24.90
2018-08-17T17:41:37.145Z,24.70
2018-08-17T17:44:05.361Z,24.50
2018-08-17T17:46:33.573Z,24.30
2018-08-17T17:49:01.790Z,24.10
2018-08-17T17:51:29.958Z,23.90
2018-08-17T17:53:58.161Z,23.80
2018-08-17T17:56:26.365Z,23.70
2018-08-17T17:59:00.825Z,23.60
2018-08-17T18:01:29.550Z,23.60
2018-08-17T18:03:57.746Z,23.60
2018-08-17T18:06:26.003Z,23.60
2018-08-17T18:08:54.182Z,23.50
2018-08-17T18:11:22.377Z,23.50
2018-08-17T18:13:50.565Z,23.50
2018-08-17T18:16:18.750Z,23.40
2018-08-17T18:18:46.890Z,23.20
2018-08-17T18:21:15.142Z,23.10
2018-08-17T18:23:43.337Z,23.00
2018-08-17T18:26:18.349Z,22.90
2018-08-17T18:28:46.557Z,22.80
2018-08-17T18:31:15.074Z,22.60
2018-08-17T18:33:43.227Z,22.50
2018-08-17T18:36:11.764Z,22.40
2018-08-17T18:38:39.951Z,22.30
2018-08-17T18:41:08.267Z,22.20
2018-08-17T18:43:36.452Z,22.10
2018-08-17T18:46:04.773Z,22.00
2018-08-17T18:48:33.004Z,21.90
2018-08-17T18:51:02.383Z,21.80
2018-08-17T18:53:30.574Z,21.70
2018-08-17T18:55:58.757Z,21.60
2018-08-17T18:58:27.301Z,21.60
2018-08-17T19:00:55.534Z,21.50
2018-08-17T19:03:23.690Z,21.40
2018-08-17T19:05:51.886Z,21.30
2018-08-17T19:08:20.106Z,21.30
2018-08-17T19:10:49.782Z,21.30
2018-08-17T19:13:18.018Z,21.40
2018-08-17T19:15:50.432Z,21.30
2018-08-17T19:18:18.677Z,21.30
2018-08-17T19:20:46.954Z,21.20
2018-08-17T19:23:15.123Z,21.30
2018-08-17T19:25:43.333Z,21.30
2018-08-17T19:28:11.513Z,21.30
2018-08-17T19:30:39.960Z,21.30
2018-08-17T19:33:11.446Z,21.20
2018-08-17T19:35:46.924Z,21.20
2018-08-17T19:38:15.170Z,21.00
2018-08-17T19:40:43.898Z,21.00
2018-08-17T19:43:12.117Z,20.90
2018-08-17T19:45:40.291Z,20.90
2018-08-17T19:48:08.461Z,20.80
2018-08-17T19:50:36.678Z,20.80
2018-08-17T19:53:04.917Z,20.70
2018-08-17T19:55:33.104Z,20.60
2018-08-17T19:58:01.453Z,20.60
2018-08-17T20:00:29.657Z,20.50
2018-08-17T20:02:57.925Z,20.50
2018-08-17T20:05:26.203Z,20.50
2018-08-17T20:07:54.779Z,20.40
2018-08-17T20:10:22.979Z,20.40
2018-08-17T20:12:51.244Z,20.40
2018-08-17T20:15:19.478Z,20.40
2018-08-17T20:17:50.248Z,20.40
2018-08-17T20:20:18.654Z,20.30
2018-08-17T20:22:46.900Z,20.30
2018-08-17T20:25:16.757Z,20.20
2018-08-17T20:27:46.118Z,20.20
2018-08-17T20:30:24.350Z,20.10
2018-08-17T20:32:52.581Z,20.10
2018-08-17T20:35:20.925Z,20.10
2018-08-17T20:37:51.413Z,20.10
2018-08-17T20:40:19.986Z,20.00
2018-08-17T20:42:48.294Z,20.00
2018-08-17T20:45:16.491Z,20.00
2018-08-17T20:47:44.821Z,20.00
2018-08-17T20:50:19.559Z,20.00
2018-08-17T20:52:53.386Z,20.00
2018-08-17T20:55:21.623Z,19.90
2018-08-17T20:57:51.476Z,19.90
2018-08-17T21:00:19.880Z,19.90
2018-08-17T21:02:48.212Z,20.00
2018-08-17T21:05:16.688Z,19.90
2018-08-17T21:07:45.485Z,19.90
2018-08-17T21:10:14.402Z,19.90
2018-08-17T21:12:42.613Z,20.00
2018-08-17T21:15:11.325Z,20.00
2018-08-17T21:17:39.584Z,20.00
2018-08-17T21:20:08.545Z,20.10
2018-08-17T21:22:36.826Z,20.10
2018-08-17T21:25:05.477Z,20.00
2018-08-17T21:27:34.112Z,20.00
2018-08-17T21:30:02.545Z,20.00
2018-08-17T21:32:30.829Z,19.90
2018-08-17T21:34:59.127Z,19.90
2018-08-17T21:37:27.765Z,20.00
2018-08-17T21:39:56.752Z,20.10
2018-08-17T21:42:25.032Z,20.10
2018-08-17T21:44:53.304Z,20.20
2018-08-17T21:47:21.582Z,20.10
2018-08-17T21:49:49.815Z,20.10
2018-08-17T21:52:24.684Z,20.00
2018-08-17T21:54:52.957Z,19.90
2018-08-17T21:57:21.240Z,19.80
2018-08-17T21:59:51.181Z,19.90
2018-08-17T22:02:20.437Z,19.90
2018-08-17T22:04:48.574Z,19.90
2018-08-17T22:07:21.805Z,19.80
2018-08-17T22:09:50.652Z,19.80
2018-08-17T22:12:19.006Z,19.70
2018-08-17T22:14:48.110Z,19.60
2018-08-17T22:17:29.742Z,19.50
2018-08-17T22:19:57.958Z,19.40
2018-08-17T22:22:26.194Z,19.40
2018-08-17T22:24:56.145Z,19.30
2018-08-17T22:27:25.170Z,19.20
2018-08-17T22:29:54.794Z,19.20
2018-08-17T22:32:23.970Z,19.10
2018-08-17T22:34:52.726Z,19.10
2018-08-17T22:37:20.933Z,19.20
2018-08-17T22:39:49.150Z,19.20
2018-08-17T22:42:18.269Z,19.20
2018-08-17T22:44:46.606Z,19.20
2018-08-17T22:47:19.054Z,19.20
2018-08-17T22:49:48.773Z,19.00
2018-08-17T22:52:17.161Z,18.90
2018-08-17T22:54:49.638Z,18.90
2018-08-17T22:57:18.182Z,18.80
2018-08-17T22:59:46.386Z,18.70
2018-08-17T23:02:14.605Z,18.60
2018-08-17T23:04:42.770Z,18.60
2018-08-17T23:07:11.009Z,18.60
2018-08-17T23:09:39.186Z,18.50
2018-08-17T23:12:07.365Z,18.50
2018-08-17T23:14:35.569Z,18.50
2018-08-17T23:17:03.763Z,18.40
2018-08-17T23:19:32.309Z,18.40
2018-08-17T23:22:00.484Z,18.40
2018-08-17T23:24:28.664Z,18.30
2018-08-17T23:26:56.842Z,18.30
2018-08-17T23:29:25.038Z,18.30
2018-08-17T23:31:53.645Z,18.20
2018-08-17T23:34:22.149Z,18.20
2018-08-17T23:36:50.368Z,18.10
2018-08-17T23:39:19.233Z,18.10
2018-08-17T23:41:47.389Z,18.10
2018-08-17T23:44:15.617Z,18.10
2018-08-17T23:46:43.811Z,18.00
2018-08-17T23:49:11.941Z,17.90
2018-08-17T23:51:40.181Z,18.00
2018-08-17T23:54:08.354Z,17.90
2018-08-17T23:56:36.578Z,17.80
2018-08-17T23:59:04.750Z,17.70
